Time;durP1;ratioP1;P1;durP2;ratioP2;P2;SDS_P1;SDS_P2;PMS_P1;PMS_P2;Temp;Humidity;BMP_temperature;BMP_pressure;BME280_temperature;BME280_humidity;BME280_pressure;Samples;Min_cycle;Max_cycle;Signal;HPM_P1;HPM_P2
2022/07/17 00:00:12;;;;;;;2.92;2.70;;;;;;;;;;5056579;28;20025;-71
2022/07/17 00:02:37;;;;;;;2.70;2.50;;;;;;;;;;5056271;28;20052;-71
2022/07/17 00:05:03;;;;;;;2.95;2.65;;;;;;;;;;5055918;28;20033;-71
2022/07/17 00:07:28;;;;;;;4.75;2.78;;;;;;;;;;5037999;28;20052;-71
2022/07/17 00:09:54;;;;;;;2.53;2.40;;;;;;;;;;5055820;28;20063;-71
2022/07/17 00:12:19;;;;;;;3.67;2.88;;;;;;;;;;5056325;28;20029;-71
2022/07/17 00:14:45;;;;;;;3.25;3.00;;;;;;;;;;5071212;28;20095;-71
2022/07/17 00:17:10;;;;;;;3.50;3.20;;;;;;;;;;5071790;28;20017;-71
2022/07/17 00:19:35;;;;;;;4.70;3.35;;;;;;;;;;5055576;28;20037;-71
2022/07/17 00:22:01;;;;;;;3.45;3.15;;;;;;;;;;5055901;28;20029;-71
2022/07/17 00:24:27;;;;;;;4.18;3.08;;;;;;;;;;5037653;28;20025;-71
2022/07/17 00:26:52;;;;;;;3.00;2.70;;;;;;;;;;5071100;28;20017;-71
2022/07/17 00:29:18;;;;;;;3.25;2.55;;;;;;;;;;5037622;28;20183;-70
2022/07/17 00:31:44;;;;;;;3.13;2.80;;;;;;;;;;5037675;28;20013;-71
2022/07/17 00:34:09;;;;;;;3.20;2.90;;;;;;;;;;5055404;28;20025;-71
2022/07/17 00:36:34;;;;;;;2.90;2.78;;;;;;;;;;5055904;28;20369;-70
2022/07/17 00:39:00;;;;;;;3.67;3.10;;;;;;;;;;5071246;28;20118;-71
2022/07/17 00:41:25;;;;;;;4.75;3.42;;;;;;;;;;5066635;28;20040;-71
2022/07/17 00:43:51;;;;;;;5.32;3.83;;;;;;;;;;5017602;28;20030;-70
2022/07/17 00:46:17;;;;;;;5.38;4.32;;;;;;;;;;5035806;28;20520;-71
2022/07/17 00:48:42;;;;;;;3.78;3.45;;;;;;;;;;5017434;28;20124;-71
2022/07/17 00:51:09;;;;;;;3.97;3.60;;;;;;;;;;5033934;28;20025;-71
2022/07/17 00:53:35;;;;;;;7.30;5.55;;;;;;;;;;5035426;28;20053;-71
2022/07/17 00:56:02;;;;;;;3.58;3.38;;;;;;;;;;5035058;28;20481;-70
2022/07/17 00:58:28;;;;;;;3.33;3.13;;;;;;;;;;5035221;28;20052;-71
2022/07/17 01:00:54;;;;;;;4.30;3.33;;;;;;;;;;5035248;28;20021;-70
2022/07/17 01:03:20;;;;;;;5.97;3.30;;;;;;;;;;5035181;28;20025;-71
2022/07/17 01:05:46;;;;;;;5.28;3.28;;;;;;;;;;5034895;28;20013;-70
2022/07/17 01:08:11;;;;;;;4.75;3.10;;;;;;;;;;5035097;28;20033;-71
2022/07/17 01:10:38;;;;;;;3.63;3.25;;;;;;;;;;5034805;28;20076;-70
2022/07/17 01:13:04;;;;;;;3.75;3.38;;;;;;;;;;5033426;28;20386;-70
2022/07/17 01:15:30;;;;;;;4.38;3.13;;;;;;;;;;5034721;28;20377;-71
2022/07/17 01:17:55;;;;;;;3.33;3.03;;;;;;;;;;5034855;28;20033;-71
2022/07/17 01:20:20;;;;;;;3.92;2.92;;;;;;;;;;5033727;28;20013;-71
2022/07/17 01:22:47;;;;;;;4.45;3.03;;;;;;;;;;5033295;28;20539;-70
2022/07/17 01:25:13;;;;;;;4.55;3.25;;;;;;;;;;5066509;28;20028;-71
2022/07/17 01:27:39;;;;;;;3.50;3.17;;;;;;;;;;5034446;28;20029;-71
2022/07/17 01:30:05;;;;;;;3.58;3.00;;;;;;;;;;5033254;28;20071;-70
2022/07/17 01:32:31;;;;;;;3.53;3.22;;;;;;;;;;5034374;28;20063;-70
2022/07/17 01:34:58;;;;;;;3.25;2.88;;;;;;;;;;5034338;28;20021;-71
2022/07/17 01:37:24;;;;;;;3.38;3.17;;;;;;;;;;5034546;28;20034;-70
2022/07/17 01:39:52;;;;;;;3.33;2.92;;;;;;;;;;5034115;28;20021;-71
2022/07/17 01:42:18;;;;;;;4.68;3.10;;;;;;;;;;5047231;28;20068;-70
2022/07/17 01:44:43;;;;;;;3.63;2.95;;;;;;;;;;5054360;28;20053;-70
2022/07/17 01:47:09;;;;;;;2.47;2.17;;;;;;;;;;5054260;28;20029;-70
2022/07/17 01:49:34;;;;;;;2.80;2.60;;;;;;;;;;5054251;28;20029;-70
2022/07/17 01:51:59;;;;;;;2.55;2.35;;;;;;;;;;5053005;28;20032;-70
2022/07/17 01:54:28;;;;;;;2.78;2.35;;;;;;;;;;5053896;28;20468;-70
2022/07/17 01:56:53;;;;;;;2.78;2.55;;;;;;;;;;5036375;28;20049;-70
2022/07/17 01:59:18;;;;;;;2.95;2.58;;;;;;;;;;5053742;28;20029;-70
2022/07/17 02:01:44;;;;;;;4.35;3.60;;;;;;;;;;5069545;28;20060;-70
2022/07/17 02:04:09;;;;;;;3.60;3.30;;;;;;;;;;5054041;28;20013;-70
2022/07/17 02:06:34;;;;;;;3.60;3.30;;;;;;;;;;5053720;28;20051;-70
2022/07/17 02:09:00;;;;;;;3.30;3.00;;;;;;;;;;5054026;28;20021;-70
2022/07/17 02:11:25;;;;;;;3.05;2.85;;;;;;;;;;5054204;28;20060;-71
2022/07/17 02:13:50;;;;;;;3.50;3.03;;;;;;;;;;5053632;28;20048;-70
2022/07/17 02:16:16;;;;;;;3.10;2.90;;;;;;;;;;5054184;28;20094;-70
2022/07/17 02:18:41;;;;;;;3.55;3.00;;;;;;;;;;5054092;28;20021;-70
2022/07/17 02:21:06;;;;;;;3.08;2.88;;;;;;;;;;5035679;28;20044;-70
2022/07/17 02:23:32;;;;;;;3.25;2.92;;;;;;;;;;5069302;28;20017;-70
2022/07/17 02:25:57;;;;;;;3.75;3.00;;;;;;;;;;5053473;28;20029;-70
2022/07/17 02:28:23;;;;;;;4.35;2.90;;;;;;;;;;5068980;28;20021;-71
2022/07/17 02:30:48;;;;;;;3.05;2.80;;;;;;;;;;5053692;28;20037;-70
2022/07/17 02:33:14;;;;;;;3.60;3.10;;;;;;;;;;5053702;28;20031;-71
2022/07/17 02:35:39;;;;;;;7.30;3.15;;;;;;;;;;5053386;28;20104;-70
2022/07/17 02:38:05;;;;;;;3.28;3.00;;;;;;;;;;5069376;28;20025;-70
2022/07/17 02:40:30;;;;;;;3.00;2.80;;;;;;;;;;5053664;28;20071;-70
2022/07/17 02:42:56;;;;;;;5.22;2.65;;;;;;;;;;5053093;28;20041;-70
2022/07/17 02:45:24;;;;;;;4.40;3.38;;;;;;;;;;5053312;28;20025;-70
2022/07/17 02:47:50;;;;;;;4.07;2.92;;;;;;;;;;5053301;28;20024;-70
2022/07/17 02:50:15;;;;;;;3.33;3.10;;;;;;;;;;5053849;28;20037;-70
2022/07/17 02:52:41;;;;;;;3.20;2.90;;;;;;;;;;5053209;28;20031;-70
2022/07/17 02:55:07;;;;;;;3.00;2.80;;;;;;;;;;5053512;28;20053;-70
2022/07/17 02:57:32;;;;;;;3.58;2.90;;;;;;;;;;5053732;28;20021;-70
2022/07/17 02:59:57;;;;;;;3.65;3.35;;;;;;;;;;5053111;28;20538;-70
2022/07/17 03:02:23;;;;;;;3.67;3.35;;;;;;;;;;5053437;28;20024;-70
2022/07/17 03:04:48;;;;;;;5.53;3.28;;;;;;;;;;5072406;28;20037;-71
2022/07/17 03:07:14;;;;;;;2.97;2.78;;;;;;;;;;5072580;28;20099;-70
2022/07/17 03:09:39;;;;;;;4.57;3.47;;;;;;;;;;5056982;28;20033;-70
2022/07/17 03:12:05;;;;;;;3.35;2.78;;;;;;;;;;5039068;28;20021;-70
2022/07/17 03:14:31;;;;;;;3.55;3.25;;;;;;;;;;5057193;28;20048;-70
2022/07/17 03:16:56;;;;;;;3.95;3.55;;;;;;;;;;5039137;28;20512;-70
2022/07/17 03:19:21;;;;;;;5.05;3.15;;;;;;;;;;5057001;28;20044;-70
2022/07/17 03:21:47;;;;;;;3.47;2.92;;;;;;;;;;5057078;28;20064;-70
2022/07/17 03:24:12;;;;;;;3.70;3.30;;;;;;;;;;5056735;28;20028;-71
2022/07/17 03:26:37;;;;;;;5.25;3.38;;;;;;;;;;5056691;28;20534;-70
2022/07/17 03:29:03;;;;;;;3.08;2.88;;;;;;;;;;5056586;28;20124;-70
2022/07/17 03:31:28;;;;;;;4.28;3.55;;;;;;;;;;5056575;28;20083;-70
2022/07/17 03:33:54;;;;;;;4.00;3.45;;;;;;;;;;5072352;28;20052;-71
2022/07/17 03:36:20;;;;;;;3.75;3.47;;;;;;;;;;5056519;28;20488;-71
2022/07/17 03:38:45;;;;;;;3.90;3.45;;;;;;;;;;5056335;28;20044;-70
2022/07/17 03:41:11;;;;;;;3.10;2.90;;;;;;;;;;5056456;28;20045;-71
2022/07/17 03:43:37;;;;;;;2.72;2.60;;;;;;;;;;5071790;28;20111;-70
2022/07/17 03:46:02;;;;;;;3.30;3.00;;;;;;;;;;5056294;28;20546;-70
2022/07/17 03:48:28;;;;;;;3.08;2.78;;;;;;;;;;5056275;28;20025;-70
2022/07/17 03:50:53;;;;;;;3.17;2.97;;;;;;;;;;5056519;28;20469;-70
2022/07/17 03:53:19;;;;;;;3.22;2.92;;;;;;;;;;5056167;28;20033;-70
2022/07/17 03:55:44;;;;;;;4.07;3.25;;;;;;;;;;5054902;28;20044;-70
2022/07/17 03:58:09;;;;;;;6.10;3.72;;;;;;;;;;5056281;28;20492;-71
2022/07/17 04:00:35;;;;;;;3.45;3.15;;;;;;;;;;5056083;28;20108;-70
2022/07/17 04:03:00;;;;;;;4.35;3.17;;;;;;;;;;5056250;28;20033;-70
2022/07/17 04:05:25;;;;;;;3.80;3.50;;;;;;;;;;5038145;28;20056;-70
2022/07/17 04:07:51;;;;;;;6.53;3.55;;;;;;;;;;5038000;28;20362;-71
2022/07/17 04:10:16;;;;;;;4.20;3.80;;;;;;;;;;5055846;28;20464;-70
2022/07/17 04:12:42;;;;;;;3.83;3.58;;;;;;;;;;5056088;28;20029;-70
2022/07/17 04:15:07;;;;;;;5.82;3.58;;;;;;;;;;5054697;28;20480;-70
2022/07/17 04:17:33;;;;;;;4.10;3.65;;;;;;;;;;5038108;28;20068;-70
2022/07/17 04:19:58;;;;;;;5.03;3.83;;;;;;;;;;5055898;28;20032;-70
2022/07/17 04:22:24;;;;;;;7.18;4.55;;;;;;;;;;5055909;28;20119;-70
2022/07/17 04:24:50;;;;;;;5.97;4.65;;;;;;;;;;5071055;28;20025;-70
2022/07/17 04:27:15;;;;;;;8.40;4.40;;;;;;;;;;5037660;28;20025;-70
2022/07/17 04:29:41;;;;;;;5.93;3.95;;;;;;;;;;5055496;28;20056;-70
2022/07/17 04:32:07;;;;;;;4.18;3.55;;;;;;;;;;5055726;28;20123;-70
2022/07/17 04:34:32;;;;;;;3.88;3.38;;;;;;;;;;5055674;28;20029;-70
2022/07/17 04:36:59;;;;;;;3.30;3.00;;;;;;;;;;5054043;28;20033;-70
2022/07/17 04:39:27;;;;;;;2.97;2.63;;;;;;;;;;5055279;28;20031;-70
2022/07/17 04:41:53;;;;;;;3.67;2.30;;;;;;;;;;5055442;28;20044;-70
2022/07/17 04:44:18;;;;;;;2.80;2.10;;;;;;;;;;5053872;28;20037;-70
2022/07/17 04:46:44;;;;;;;2.50;2.30;;;;;;;;;;5037295;28;20021;-70
2022/07/17 04:49:09;;;;;;;3.28;2.15;;;;;;;;;;5055409;28;20465;-70
2022/07/17 04:51:35;;;;;;;3.35;2.50;;;;;;;;;;5055399;28;20429;-70
2022/07/17 04:54:00;;;;;;;2.60;2.28;;;;;;;;;;5055042;28;20546;-70
2022/07/17 04:56:25;;;;;;;2.70;2.00;;;;;;;;;;5054992;28;20125;-70
2022/07/17 04:58:51;;;;;;;3.08;2.15;;;;;;;;;;5055132;28;20025;-70
2022/07/17 05:01:16;;;;;;;1.77;1.67;;;;;;;;;;5055179;28;20112;-70
2022/07/17 05:03:41;;;;;;;2.28;2.08;;;;;;;;;;5054866;28;20013;-70
2022/07/17 05:06:07;;;;;;;2.72;1.73;;;;;;;;;;5055079;28;20028;-70
2022/07/17 05:08:33;;;;;;;1.90;1.80;;;;;;;;;;5055028;28;20029;-70
2022/07/17 05:10:59;;;;;;;2.92;2.00;;;;;;;;;;5055010;28;20036;-70
2022/07/17 05:13:25;;;;;;;2.88;1.92;;;;;;;;;;5054923;28;20013;-70
2022/07/17 05:15:50;;;;;;;2.50;1.65;;;;;;;;;;5070347;28;20037;-70
2022/07/17 05:18:16;;;;;;;2.17;1.80;;;;;;;;;;5054505;28;20472;-70
2022/07/17 05:20:41;;;;;;;3.83;2.13;;;;;;;;;;5055040;28;20075;-70
2022/07/17 05:23:06;;;;;;;1.50;1.33;;;;;;;;;;5036578;28;20021;-70
2022/07/17 05:25:32;;;;;;;1.88;1.45;;;;;;;;;;5054343;28;20507;-70
2022/07/17 05:27:57;;;;;;;3.35;1.60;;;;;;;;;;5054524;28;20013;-70
2022/07/17 05:30:23;;;;;;;1.73;1.42;;;;;;;;;;5054864;28;20033;-70
2022/07/17 05:32:49;;;;;;;1.70;1.42;;;;;;;;;;5070017;28;20025;-70
2022/07/17 05:35:15;;;;;;;3.95;1.70;;;;;;;;;;5054540;28;20087;-70
2022/07/17 05:37:40;;;;;;;2.70;1.33;;;;;;;;;;5036267;28;20488;-70
2022/07/17 05:40:06;;;;;;;2.42;1.00;;;;;;;;;;5036217;28;20033;-70
2022/07/17 05:42:31;;;;;;;2.47;1.10;;;;;;;;;;5053895;28;20075;-70
2022/07/17 05:44:58;;;;;;;2.63;1.02;;;;;;;;;;5054363;28;20032;-70
2022/07/17 05:47:24;;;;;;;1.45;1.00;;;;;;;;;;5054032;28;20013;-70
2022/07/17 05:49:49;;;;;;;4.60;1.65;;;;;;;;;;5054012;28;20029;-70
2022/07/17 05:52:14;;;;;;;1.70;1.10;;;;;;;;;;5036017;28;20033;-71
2022/07/17 05:54:40;;;;;;;1.33;0.90;;;;;;;;;;5053861;28;20033;-70
2022/07/17 05:57:05;;;;;;;1.15;1.00;;;;;;;;;;5053910;28;20103;-70
2022/07/17 05:59:31;;;;;;;3.50;1.05;;;;;;;;;;5069254;28;20031;-71
2022/07/17 06:01:56;;;;;;;2.15;0.90;;;;;;;;;;5069302;28;20021;-71
2022/07/17 06:04:21;;;;;;;2.05;1.17;;;;;;;;;;5053738;28;20035;-70
2022/07/17 06:06:47;;;;;;;2.22;0.90;;;;;;;;;;5054045;28;20104;-70
2022/07/17 06:09:12;;;;;;;1.60;1.40;;;;;;;;;;5053696;28;20421;-70
2022/07/17 06:11:37;;;;;;;1.40;1.10;;;;;;;;;;5053670;28;20072;-70
2022/07/17 06:14:03;;;;;;;3.33;1.13;;;;;;;;;;5053904;28;20039;-71
2022/07/17 06:16:28;;;;;;;1.92;1.13;;;;;;;;;;5053604;28;20028;-71
2022/07/17 06:18:54;;;;;;;1.83;1.02;;;;;;;;;;5053481;28;20053;-70
2022/07/17 06:21:19;;;;;;;2.13;1.15;;;;;;;;;;5053518;28;20435;-70
2022/07/17 06:23:44;;;;;;;1.05;0.90;;;;;;;;;;5053516;28;20029;-71
2022/07/17 06:26:10;;;;;;;2.28;1.10;;;;;;;;;;5053485;28;20411;-71
2022/07/17 06:28:35;;;;;;;1.90;1.00;;;;;;;;;;5053474;28;20066;-71
2022/07/17 06:31:00;;;;;;;3.75;1.63;;;;;;;;;;5053461;28;20029;-71
2022/07/17 06:33:26;;;;;;;2.60;1.08;;;;;;;;;;5053702;28;20021;-71
2022/07/17 06:35:51;;;;;;;4.10;1.13;;;;;;;;;;5053938;28;20017;-71
2022/07/17 06:38:17;;;;;;;2.28;1.13;;;;;;;;;;5070487;28;20064;-71
2022/07/17 06:40:42;;;;;;;1.42;1.00;;;;;;;;;;5057365;28;20021;-71
2022/07/17 06:43:08;;;;;;;2.38;0.98;;;;;;;;;;5057797;28;20575;-71
2022/07/17 06:45:33;;;;;;;1.73;1.10;;;;;;;;;;5072928;28;20017;-71
2022/07/17 06:47:59;;;;;;;2.72;1.08;;;;;;;;;;5039635;28;20029;-71
2022/07/17 06:50:24;;;;;;;3.03;1.10;;;;;;;;;;5057652;28;20029;-71
2022/07/17 06:52:50;;;;;;;2.85;1.20;;;;;;;;;;5057307;28;20476;-71
2022/07/17 06:55:15;;;;;;;2.00;1.00;;;;;;;;;;5072892;28;20469;-71
2022/07/17 06:57:41;;;;;;;2.20;1.17;;;;;;;;;;5057215;28;20072;-71
2022/07/17 07:00:08;;;;;;;2.28;0.82;;;;;;;;;;5057368;28;20032;-71
2022/07/17 07:02:34;;;;;;;2.72;1.20;;;;;;;;;;5057151;28;20037;-71
2022/07/17 07:04:59;;;;;;;2.17;0.95;;;;;;;;;;5057034;28;20033;-71
2022/07/17 07:07:24;;;;;;;2.58;1.20;;;;;;;;;;5039129;28;20158;-71
2022/07/17 07:09:50;;;;;;;2.22;0.90;;;;;;;;;;5056953;28;20361;-71
2022/07/17 07:12:15;;;;;;;1.63;0.95;;;;;;;;;;5039467;28;20416;-71
2022/07/17 07:14:41;;;;;;;2.83;0.77;;;;;;;;;;5056931;28;20480;-71
2022/07/17 07:17:06;;;;;;;1.85;0.90;;;;;;;;;;5072373;28;20037;-71
2022/07/17 07:19:31;;;;;;;1.98;0.90;;;;;;;;;;5056765;28;20025;-71
2022/07/17 07:21:57;;;;;;;3.83;1.15;;;;;;;;;;5057060;28;20025;-71
2022/07/17 07:24:22;;;;;;;1.48;0.82;;;;;;;;;;5072507;28;20419;-71
2022/07/17 07:26:48;;;;;;;0.73;0.73;;;;;;;;;;5057021;28;20467;-71
2022/07/17 07:29:13;;;;;;;2.20;1.00;;;;;;;;;;5056637;28;20460;-71
2022/07/17 07:31:38;;;;;;;4.32;1.15;;;;;;;;;;5056572;28;20068;-71
2022/07/17 07:34:04;;;;;;;1.50;0.70;;;;;;;;;;5055319;28;20021;-71
2022/07/17 07:36:29;;;;;;;5.30;0.93;;;;;;;;;;5038766;28;20064;-71
2022/07/17 07:38:55;;;;;;;2.03;0.80;;;;;;;;;;5072074;28;20017;-71
2022/07/17 07:41:20;;;;;;;1.98;0.88;;;;;;;;;;5038385;28;20052;-71
2022/07/17 07:43:46;;;;;;;0.90;0.60;;;;;;;;;;5056968;28;20068;-71
2022/07/17 07:46:11;;;;;;;2.65;0.90;;;;;;;;;;5056619;28;20078;-71
2022/07/17 07:48:37;;;;;;;1.38;0.60;;;;;;;;;;5056316;28;20025;-79
2022/07/17 07:51:02;;;;;;;2.78;0.70;;;;;;;;;;5042124;22;20200;-71
2022/07/17 07:53:28;;;;;;;2.25;0.70;;;;;;;;;;4998913;28;20088;-71
2022/07/17 07:55:53;;;;;;;3.20;0.80;;;;;;;;;;4998943;28;20454;-71
2022/07/17 07:58:19;;;;;;;1.30;0.65;;;;;;;;;;5016633;28;20040;-71
2022/07/17 08:00:45;;;;;;;1.48;0.70;;;;;;;;;;5016950;28;20026;-71
2022/07/17 08:03:10;;;;;;;1.05;0.68;;;;;;;;;;5016588;28;20034;-71
2022/07/17 08:05:36;;;;;;;2.45;0.80;;;;;;;;;;5016587;28;20025;-71
2022/07/17 08:08:01;;;;;;;1.05;0.60;;;;;;;;;;5016245;28;20440;-71
2022/07/17 08:10:27;;;;;;;2.05;0.40;;;;;;;;;;4998579;28;20108;-71
2022/07/17 08:12:52;;;;;;;0.70;0.60;;;;;;;;;;4998708;28;20044;-71
2022/07/17 08:15:19;;;;;;;0.95;0.60;;;;;;;;;;5016669;28;20377;-71
2022/07/17 08:17:44;;;;;;;0.60;0.60;;;;;;;;;;5016576;28;20116;-70
2022/07/17 08:20:10;;;;;;;0.82;0.55;;;;;;;;;;5015932;28;20109;-71
2022/07/17 08:22:36;;;;;;;1.27;0.60;;;;;;;;;;5014625;28;20025;-71
2022/07/17 08:25:01;;;;;;;1.98;0.70;;;;;;;;;;5015948;28;20025;-71
2022/07/17 08:27:27;;;;;;;2.42;0.70;;;;;;;;;;5016146;28;20053;-71
2022/07/17 08:29:52;;;;;;;2.40;0.80;;;;;;;;;;5016121;28;20025;-71
2022/07/17 08:32:17;;;;;;;1.17;0.70;;;;;;;;;;5015776;28;20108;-71
2022/07/17 08:34:43;;;;;;;1.75;0.70;;;;;;;;;;5016016;28;20104;-71
2022/07/17 08:37:08;;;;;;;2.50;0.70;;;;;;;;;;4998560;28;20065;-71
2022/07/17 08:39:33;;;;;;;1.05;0.60;;;;;;;;;;5015568;28;20485;-71
2022/07/17 08:42:01;;;;;;;0.47;0.47;;;;;;;;;;4998142;28;20038;-71
2022/07/17 08:44:26;;;;;;;2.47;0.80;;;;;;;;;;4998370;28;20454;-71
2022/07/17 08:46:52;;;;;;;1.90;0.68;;;;;;;;;;4997958;28;20072;-71
2022/07/17 08:49:20;;;;;;;2.83;0.63;;;;;;;;;;5015445;28;20022;-71
2022/07/17 08:51:47;;;;;;;1.15;0.60;;;;;;;;;;5015214;28;20437;-71
2022/07/17 08:54:12;;;;;;;3.20;0.60;;;;;;;;;;5015622;28;20121;-71
2022/07/17 08:56:37;;;;;;;0.75;0.75;;;;;;;;;;5015305;28;20061;-71
2022/07/17 08:59:03;;;;;;;0.57;0.57;;;;;;;;;;5015769;28;20033;-71
2022/07/17 09:01:28;;;;;;;1.35;0.70;;;;;;;;;;4997135;28;20133;-71
2022/07/17 09:03:58;;;;;;;2.10;0.60;;;;;;;;;;5015190;28;20029;-71
2022/07/17 09:06:29;;;;;;;1.30;0.50;;;;;;;;;;5015703;28;20137;-71
2022/07/17 09:09:02;;;;;;;1.08;0.60;;;;;;;;;;4997905;28;20033;-71
2022/07/17 09:11:29;;;;;;;1.27;0.70;;;;;;;;;;4997845;28;20528;-71
2022/07/17 09:13:55;;;;;;;0.55;0.40;;;;;;;;;;4997551;28;20037;-71
2022/07/17 09:16:20;;;;;;;1.02;0.57;;;;;;;;;;5015228;28;20108;-71
2022/07/17 09:18:49;;;;;;;1.95;0.35;;;;;;;;;;5015405;28;20025;-71
2022/07/17 09:21:18;;;;;;;0.75;0.50;;;;;;;;;;5014918;28;20036;-71
2022/07/17 09:23:44;;;;;;;1.75;0.88;;;;;;;;;;5015072;28;20101;-71
2022/07/17 09:26:10;;;;;;;2.58;0.75;;;;;;;;;;5014775;28;20415;-71
2022/07/17 09:28:46;;;;;;;1.40;0.45;;;;;;;;;;4997165;28;20525;-71
2022/07/17 09:31:11;;;;;;;1.10;0.50;;;;;;;;;;4996996;28;20405;-71
2022/07/17 09:33:36;;;;;;;0.93;0.50;;;;;;;;;;5014921;28;20026;-71
2022/07/17 09:36:09;;;;;;;1.35;0.57;;;;;;;;;;5014614;28;20384;-71
2022/07/17 09:38:42;;;;;;;1.67;0.50;;;;;;;;;;5014798;28;20041;-71
2022/07/17 09:41:17;;;;;;;1.42;0.50;;;;;;;;;;4997289;28;20029;-71
2022/07/17 09:44:09;;;;;;;0.43;0.40;;;;;;;;;;4996888;28;20385;-71
2022/07/17 09:46:36;;;;;;;0.45;0.43;;;;;;;;;;5013166;28;20120;-71
2022/07/17 09:49:07;;;;;;;1.27;0.57;;;;;;;;;;5013195;28;20072;-71
2022/07/17 09:51:34;;;;;;;1.95;0.50;;;;;;;;;;5014261;28;20046;-71
2022/07/17 09:54:01;;;;;;;1.40;0.60;;;;;;;;;;5014579;28;20038;-71
2022/07/17 09:56:30;;;;;;;2.58;0.40;;;;;;;;;;5014822;28;20093;-71
2022/07/17 09:59:07;;;;;;;0.50;0.40;;;;;;;;;;5014449;28;20106;-71
2022/07/17 10:01:34;;;;;;;1.52;0.65;;;;;;;;;;4996611;28;20029;-71
2022/07/17 10:03:59;;;;;;;1.38;0.52;;;;;;;;;;5014405;28;20018;-71
2022/07/17 10:06:25;;;;;;;0.57;0.50;;;;;;;;;;5014165;28;20535;-71
2022/07/17 10:08:51;;;;;;;1.00;0.65;;;;;;;;;;5029289;28;20017;-71
2022/07/17 10:11:19;;;;;;;0.90;0.60;;;;;;;;;;5014336;28;20022;-71
2022/07/17 10:13:45;;;;;;;0.47;0.47;;;;;;;;;;5013201;28;20025;-71
2022/07/17 10:16:13;;;;;;;0.80;0.60;;;;;;;;;;5014019;28;20500;-71
2022/07/17 10:18:41;;;;;;;1.35;0.55;;;;;;;;;;5013829;28;20030;-71
2022/07/17 10:21:09;;;;;;;1.15;0.50;;;;;;;;;;5013908;28;20021;-71
2022/07/17 10:23:35;;;;;;;0.88;0.47;;;;;;;;;;5013919;28;20014;-71
2022/07/17 10:26:01;;;;;;;0.68;0.50;;;;;;;;;;5014141;28;20087;-71
2022/07/17 10:28:38;;;;;;;0.88;0.60;;;;;;;;;;5013840;28;20380;-71
2022/07/17 10:31:03;;;;;;;2.28;0.50;;;;;;;;;;5013848;28;20022;-71
2022/07/17 10:33:28;;;;;;;1.60;0.60;;;;;;;;;;5014078;28;20406;-71
2022/07/17 10:35:54;;;;;;;1.50;0.68;;;;;;;;;;4996202;28;20132;-70
2022/07/17 10:38:21;;;;;;;1.20;0.40;;;;;;;;;;5013948;28;20010;-71
2022/07/17 10:40:46;;;;;;;1.90;0.90;;;;;;;;;;4996095;28;20022;-71
2022/07/17 10:43:12;;;;;;;0.73;0.60;;;;;;;;;;5014314;28;20069;-71
2022/07/17 10:45:42;;;;;;;0.63;0.55;;;;;;;;;;4996100;28;20462;-71
2022/07/17 10:48:16;;;;;;;1.20;0.75;;;;;;;;;;5013982;28;20401;-71
2022/07/17 10:50:43;;;;;;;0.60;0.60;;;;;;;;;;5013510;28;20510;-71
2022/07/17 10:53:18;;;;;;;2.85;0.63;;;;;;;;;;4996019;28;20018;-71
2022/07/17 10:55:45;;;;;;;1.23;0.45;;;;;;;;;;4996439;28;20112;-71
2022/07/17 10:58:14;;;;;;;1.10;0.55;;;;;;;;;;5013812;28;20458;-71
2022/07/17 11:00:40;;;;;;;0.70;0.50;;;;;;;;;;5013591;28;20061;-71
2022/07/17 11:03:10;;;;;;;1.23;0.40;;;;;;;;;;5014103;28;20045;-71
2022/07/17 11:05:35;;;;;;;1.90;0.47;;;;;;;;;;5014053;28;20128;-70
2022/07/17 11:08:03;;;;;;;1.17;0.57;;;;;;;;;;5012234;28;20456;-71
2022/07/17 11:10:29;;;;;;;2.55;0.60;;;;;;;;;;5013733;28;20425;-71
2022/07/17 11:12:55;;;;;;;0.93;0.73;;;;;;;;;;5013445;28;20170;-71
2022/07/17 11:15:20;;;;;;;2.05;0.60;;;;;;;;;;4995800;28;20450;-71
2022/07/17 11:17:46;;;;;;;2.67;0.65;;;;;;;;;;5013927;28;20049;-71
2022/07/17 11:20:12;;;;;;;1.30;0.60;;;;;;;;;;5013588;28;20109;-71
2022/07/17 11:22:38;;;;;;;1.00;0.68;;;;;;;;;;5013361;28;20097;-71
2022/07/17 11:25:05;;;;;;;0.80;0.45;;;;;;;;;;5015808;28;20030;-71
2022/07/17 11:27:30;;;;;;;1.83;0.63;;;;;;;;;;5017337;28;20014;-70
2022/07/17 11:29:58;;;;;;;0.50;0.50;;;;;;;;;;4999474;28;20063;-70
2022/07/17 11:32:25;;;;;;;0.93;0.57;;;;;;;;;;5017219;28;20029;-70
2022/07/17 11:34:50;;;;;;;1.02;0.70;;;;;;;;;;5017177;28;20030;-70
2022/07/17 11:37:16;;;;;;;2.20;0.63;;;;;;;;;;4999287;28;20238;-71
2022/07/17 11:39:43;;;;;;;0.80;0.50;;;;;;;;;;5016758;28;20033;-79
2022/07/17 11:42:18;;;;;;;2.67;0.70;;;;;;;;;;5016767;28;20473;-79
2022/07/17 11:44:44;;;;;;;0.93;0.60;;;;;;;;;;5016720;28;20053;-79
2022/07/17 11:47:10;;;;;;;1.23;0.40;;;;;;;;;;5016646;28;20470;-79
2022/07/17 11:49:36;;;;;;;0.65;0.60;;;;;;;;;;5031849;28;20036;-79
2022/07/17 11:52:09;;;;;;;2.05;0.70;;;;;;;;;;5031628;28;20099;-79
2022/07/17 11:54:47;;;;;;;1.15;0.60;;;;;;;;;;4999638;28;20037;-79
2022/07/17 11:57:13;;;;;;;0.70;0.70;;;;;;;;;;5016461;28;20109;-79
2022/07/17 11:59:38;;;;;;;1.67;0.60;;;;;;;;;;5016633;28;20100;-79
2022/07/17 12:02:11;;;;;;;0.50;0.50;;;;;;;;;;5016345;28;20034;-79
2022/07/17 12:04:47;;;;;;;1.02;0.70;;;;;;;;;;5016312;28;20034;-79
2022/07/17 12:07:12;;;;;;;1.15;0.80;;;;;;;;;;5016570;28;20022;-79
2022/07/17 12:09:38;;;;;;;1.08;0.50;;;;;;;;;;5016227;28;20377;-79
2022/07/17 12:12:03;;;;;;;1.42;0.65;;;;;;;;;;5016204;28;20029;-79
2022/07/17 12:14:31;;;;;;;3.47;0.60;;;;;;;;;;5016731;28;20101;-79
2022/07/17 12:17:00;;;;;;;0.80;0.50;;;;;;;;;;5016038;28;20113;-79
2022/07/17 12:19:25;;;;;;;1.10;0.60;;;;;;;;;;5032064;28;20421;-79
2022/07/17 12:21:59;;;;;;;1.60;0.43;;;;;;;;;;5016298;28;20061;-79
2022/07/17 12:24:26;;;;;;;0.90;0.50;;;;;;;;;;5015874;28;20022;-79
2022/07/17 12:26:52;;;;;;;1.98;0.70;;;;;;;;;;4998438;28;20359;-79
2022/07/17 12:29:18;;;;;;;3.42;0.77;;;;;;;;;;5016434;28;20048;-79
2022/07/17 12:31:43;;;;;;;0.70;0.70;;;;;;;;;;5015860;28;20101;-79
2022/07/17 12:34:09;;;;;;;2.20;0.70;;;;;;;;;;5016059;28;20474;-79
2022/07/17 12:36:34;;;;;;;1.35;0.60;;;;;;;;;;5014849;28;20026;-79
2022/07/17 12:39:00;;;;;;;1.95;0.47;;;;;;;;;;5015856;28;20540;-79
2022/07/17 12:41:25;;;;;;;1.00;0.63;;;;;;;;;;5030879;28;20054;-79
2022/07/17 12:43:51;;;;;;;1.15;0.60;;;;;;;;;;5014418;28;20037;-79
2022/07/17 12:46:16;;;;;;;0.70;0.60;;;;;;;;;;5015525;28;20117;-79
2022/07/17 12:48:43;;;;;;;0.98;0.45;;;;;;;;;;5015469;28;20033;-79
2022/07/17 12:51:09;;;;;;;0.88;0.50;;;;;;;;;;4997716;28;20490;-79
2022/07/17 12:53:35;;;;;;;3.05;0.52;;;;;;;;;;5015428;28;20037;-79
2022/07/17 12:56:02;;;;;;;0.63;0.60;;;;;;;;;;5015932;28;20034;-80
2022/07/17 12:58:29;;;;;;;1.17;0.55;;;;;;;;;;5015209;28;20473;-80
2022/07/17 13:00:54;;;;;;;1.10;0.60;;;;;;;;;;4998101;28;20459;-79
2022/07/17 13:03:20;;;;;;;1.17;0.63;;;;;;;;;;5015248;28;20076;-79
2022/07/17 13:05:46;;;;;;;1.33;0.40;;;;;;;;;;5015192;28;20408;-79
2022/07/17 13:08:12;;;;;;;2.22;0.50;;;;;;;;;;5015426;28;20041;-79
2022/07/17 13:10:37;;;;;;;2.38;0.80;;;;;;;;;;5015362;28;20105;-79
2022/07/17 13:13:04;;;;;;;1.38;0.70;;;;;;;;;;5015035;28;20474;-79
2022/07/17 13:15:30;;;;;;;0.63;0.50;;;;;;;;;;5030895;28;20045;-79
2022/07/17 13:17:55;;;;;;;2.10;0.70;;;;;;;;;;5015259;28;20034;-79
2022/07/17 13:20:21;;;;;;;1.30;0.52;;;;;;;;;;5014850;28;20026;-79
2022/07/17 13:22:46;;;;;;;1.02;0.50;;;;;;;;;;5015444;28;20025;-79
2022/07/17 13:25:11;;;;;;;1.15;0.50;;;;;;;;;;5014808;28;20021;-79
2022/07/17 13:27:37;;;;;;;3.53;0.65;;;;;;;;;;4997344;28;20030;-79
2022/07/17 13:30:02;;;;;;;1.60;0.52;;;;;;;;;;5015046;28;20509;-79
2022/07/17 13:32:28;;;;;;;1.67;0.73;;;;;;;;;;4997578;28;20034;-79
2022/07/17 13:34:54;;;;;;;0.73;0.57;;;;;;;;;;5014955;28;20045;-79
2022/07/17 13:37:20;;;;;;;0.82;0.60;;;;;;;;;;5015166;28;20105;-79
2022/07/17 13:39:45;;;;;;;2.17;0.63;;;;;;;;;;5014551;28;20033;-79
2022/07/17 13:42:10;;;;;;;0.40;0.40;;;;;;;;;;5014553;28;20092;-80
2022/07/17 13:44:36;;;;;;;1.08;0.70;;;;;;;;;;5014792;28;20026;-80
2022/07/17 13:47:02;;;;;;;1.13;0.45;;;;;;;;;;5014884;28;20025;-79
2022/07/17 13:49:27;;;;;;;0.93;0.50;;;;;;;;;;5029613;28;20022;-79
2022/07/17 13:51:53;;;;;;;0.80;0.60;;;;;;;;;;5029522;28;20494;-79
2022/07/17 13:54:18;;;;;;;1.48;0.70;;;;;;;;;;4997096;28;20041;-79
2022/07/17 13:56:44;;;;;;;2.25;0.68;;;;;;;;;;5014333;28;20553;-80
2022/07/17 13:59:09;;;;;;;0.75;0.60;;;;;;;;;;5014738;28;20366;-79
2022/07/17 14:01:34;;;;;;;1.00;0.70;;;;;;;;;;5014228;28;20038;-79
2022/07/17 14:04:00;;;;;;;1.23;0.57;;;;;;;;;;5014476;28;20022;-79
2022/07/17 14:06:25;;;;;;;1.15;0.65;;;;;;;;;;5014146;28;20033;-79
2022/07/17 14:08:51;;;;;;;1.00;0.50;;;;;;;;;;5014417;28;20025;-79
2022/07/17 14:11:16;;;;;;;1.38;0.60;;;;;;;;;;5014100;28;20081;-79
2022/07/17 14:13:42;;;;;;;2.67;0.50;;;;;;;;;;5014621;28;20470;-79
2022/07/17 14:16:07;;;;;;;0.68;0.63;;;;;;;;;;4996557;28;20432;-79
2022/07/17 14:18:32;;;;;;;0.60;0.55;;;;;;;;;;5012685;28;20033;-79
2022/07/17 14:20:58;;;;;;;1.77;0.50;;;;;;;;;;5014505;28;20025;-79
2022/07/17 14:23:23;;;;;;;1.20;0.60;;;;;;;;;;5013901;28;20044;-79
2022/07/17 14:25:49;;;;;;;1.65;0.70;;;;;;;;;;5014182;28;20034;-79
2022/07/17 14:28:14;;;;;;;1.17;0.52;;;;;;;;;;5013888;28;20018;-79
2022/07/17 14:30:39;;;;;;;1.05;0.60;;;;;;;;;;5014115;28;20439;-79
2022/07/17 14:33:05;;;;;;;1.27;0.55;;;;;;;;;;5013842;28;20056;-79
2022/07/17 14:35:31;;;;;;;1.10;0.60;;;;;;;;;;5014084;28;20109;-79